createdAt,value
2018-05-10T00:00:20.471Z,8.60
2018-05-10T00:02:49.022Z,6.85
2018-05-10T00:05:16.866Z,10.52
2018-05-10T00:07:44.659Z,7.97
2018-05-10T00:10:12.453Z,5.57
2018-05-10T00:12:40.223Z,11.33
2018-05-10T00:15:08.026Z,10.70
2018-05-10T00:17:35.784Z,9.05
2018-05-10T00:20:03.601Z,6.62
2018-05-10T00:22:31.448Z,7.93
2018-05-10T00:24:59.260Z,6.47
2018-05-10T00:27:27.008Z,11.23
2018-05-10T00:29:55.522Z,9.13
2018-05-10T00:32:23.352Z,9.87
2018-05-10T00:34:51.066Z,7.03
2018-05-10T00:37:18.828Z,13.35
2018-05-10T00:39:46.575Z,6.85
2018-05-10T00:42:14.331Z,10.57
2018-05-10T00:44:42.120Z,9.55
2018-05-10T00:47:09.976Z,10.77
2018-05-10T00:49:37.707Z,5.97
2018-05-10T00:52:06.275Z,7.62
2018-05-10T00:54:45.666Z,6.80
2018-05-10T00:57:13.539Z,6.17
2018-05-10T00:59:41.291Z,7.57
2018-05-10T01:02:09.089Z,8.52
2018-05-10T01:04:36.924Z,8.27
2018-05-10T01:07:04.688Z,9.38
2018-05-10T01:09:32.483Z,10.17
2018-05-10T01:12:00.241Z,7.47
2018-05-10T01:14:28.091Z,8.38
2018-05-10T01:16:55.881Z,12.52
2018-05-10T01:19:23.713Z,5.68
2018-05-10T01:21:51.521Z,8.68
2018-05-10T01:24:19.280Z,11.00
2018-05-10T01:26:47.036Z,11.45
2018-05-10T01:29:14.795Z,9.00
2018-05-10T01:31:42.562Z,9.02
2018-05-10T01:34:10.343Z,7.97
2018-05-10T01:36:38.063Z,7.50
2018-05-10T01:39:05.915Z,7.05
2018-05-10T01:41:34.415Z,9.60
2018-05-10T01:44:02.187Z,11.33
2018-05-10T01:46:29.912Z,9.32
2018-05-10T01:48:58.412Z,6.12
2018-05-10T01:51:26.888Z,8.27
2018-05-10T01:53:54.648Z,7.28
2018-05-10T01:56:23.147Z,9.50
2018-05-10T01:58:50.968Z,8.23
2018-05-10T02:01:18.738Z,6.10
2018-05-10T02:03:46.469Z,7.75
2018-05-10T02:06:14.272Z,6.80
2018-05-10T02:08:42.003Z,8.60
2018-05-10T02:11:09.827Z,10.63
2018-05-10T02:13:37.551Z,7.53
2018-05-10T02:16:05.324Z,7.10
2018-05-10T02:18:33.063Z,9.07
2018-05-10T02:21:00.841Z,8.23
2018-05-10T02:23:28.670Z,7.57
2018-05-10T02:25:56.452Z,7.50
2018-05-10T02:28:24.249Z,4.85
2018-05-10T02:30:52.063Z,6.35
2018-05-10T02:33:19.760Z,6.62
2018-05-10T02:35:47.547Z,4.68
2018-05-10T02:38:15.266Z,5.50
2018-05-10T02:40:43.131Z,5.10
2018-05-10T02:43:10.890Z,5.00
2018-05-10T02:45:38.772Z,5.57
2018-05-10T02:48:06.552Z,5.55
2018-05-10T02:50:34.289Z,5.45
2018-05-10T02:53:02.061Z,5.27
2018-05-10T02:55:29.837Z,5.80
2018-05-10T02:57:57.646Z,6.68
2018-05-10T03:00:25.390Z,6.95
2018-05-10T03:02:53.229Z,6.35
2018-05-10T03:05:20.974Z,6.65
2018-05-10T03:07:48.752Z,6.75
2018-05-10T03:10:16.481Z,6.35
2018-05-10T03:12:44.272Z,4.97
2018-05-10T03:15:11.973Z,5.62
2018-05-10T03:17:39.755Z,5.65
2018-05-10T03:20:07.479Z,6.87
2018-05-10T03:22:35.240Z,7.35
2018-05-10T03:25:03.015Z,7.40
2018-05-10T03:27:30.773Z,6.53
2018-05-10T03:29:58.579Z,8.07
2018-05-10T03:32:26.352Z,5.75
2018-05-10T03:34:54.083Z,7.93
2018-05-10T03:37:21.796Z,7.32
2018-05-10T03:39:50.683Z,7.90
2018-05-10T03:42:18.536Z,9.10
2018-05-10T03:44:46.310Z,8.10
2018-05-10T03:47:14.814Z,8.10
2018-05-10T03:49:42.607Z,7.95
2018-05-10T03:52:10.367Z,6.97
2018-05-10T03:54:38.132Z,8.40
2018-05-10T03:57:05.904Z,9.07
2018-05-10T03:59:33.678Z,7.57
2018-05-10T04:02:01.482Z,4.87
2018-05-10T04:04:40.886Z,9.30
2018-05-10T04:07:20.362Z,8.15
2018-05-10T04:10:00.932Z,7.32
2018-05-10T04:12:29.424Z,8.00
2018-05-10T04:14:57.180Z,8.18
2018-05-10T04:17:25.708Z,6.97
2018-05-10T04:19:53.468Z,7.35
2018-05-10T04:22:21.204Z,8.30
2018-05-10T04:24:48.948Z,9.67
2018-05-10T04:27:17.399Z,9.65
2018-05-10T04:29:45.234Z,7.07
2018-05-10T04:32:13.005Z,6.93
2018-05-10T04:34:40.759Z,7.57
2018-05-10T04:37:08.464Z,7.90
2018-05-10T04:39:36.264Z,6.97
2018-05-10T04:42:04.790Z,7.50
2018-05-10T04:44:32.548Z,6.45
2018-05-10T04:47:00.273Z,5.97
2018-05-10T04:49:28.851Z,5.62
2018-05-10T04:51:57.329Z,6.70
2018-05-10T04:54:25.766Z,6.75
2018-05-10T04:56:53.511Z,6.93
2018-05-10T04:59:21.196Z,5.10
2018-05-10T05:01:48.937Z,7.62
2018-05-10T05:04:16.773Z,6.87
2018-05-10T05:06:45.290Z,6.00
2018-05-10T05:09:13.063Z,6.57
2018-05-10T05:11:40.819Z,6.65
2018-05-10T05:14:08.508Z,6.15
2018-05-10T05:16:36.257Z,6.33
2018-05-10T05:19:04.016Z,6.20
2018-05-10T05:21:31.783Z,5.53
2018-05-10T05:23:59.498Z,5.68
2018-05-10T05:26:27.283Z,7.68
2018-05-10T05:28:55.006Z,5.68
2018-05-10T05:31:22.754Z,5.37
2018-05-10T05:33:50.455Z,5.25
2018-05-10T05:36:18.177Z,5.00
2018-05-10T05:38:45.930Z,5.13
2018-05-10T05:41:13.798Z,5.05
2018-05-10T05:43:41.452Z,5.97
2018-05-10T05:46:09.191Z,6.28
2018-05-10T05:48:36.930Z,7.05
2018-05-10T05:51:04.616Z,7.93
2018-05-10T05:53:32.371Z,5.62
2018-05-10T05:56:00.104Z,6.07
2018-05-10T05:58:27.855Z,5.87
2018-05-10T06:00:55.640Z,6.00
2018-05-10T06:03:23.337Z,6.10
2018-05-10T06:05:51.060Z,6.18
2018-05-10T06:08:18.817Z,5.25
2018-05-10T06:10:46.536Z,6.20
2018-05-10T06:13:14.293Z,5.12
2018-05-10T06:15:42.003Z,5.60
2018-05-10T06:18:09.792Z,5.32
2018-05-10T06:20:37.538Z,5.03
2018-05-10T06:23:05.276Z,5.03
2018-05-10T06:25:32.992Z,6.18
2018-05-10T06:28:01.506Z,7.85
2018-05-10T06:30:29.213Z,7.22
2018-05-10T06:32:56.987Z,5.25
2018-05-10T06:35:24.749Z,6.70
2018-05-10T06:37:52.497Z,5.10
2018-05-10T06:40:20.203Z,5.83
2018-05-10T06:42:48.688Z,5.15
2018-05-10T06:45:17.192Z,4.05
2018-05-10T06:47:44.900Z,5.97
2018-05-10T06:50:12.653Z,3.55
2018-05-10T06:52:40.380Z,4.60
2018-05-10T06:55:08.133Z,5.00
2018-05-10T06:57:35.816Z,3.90
2018-05-10T07:00:03.606Z,5.47
2018-05-10T07:02:31.353Z,4.10
2018-05-10T07:04:59.154Z,4.60
2018-05-10T07:07:26.870Z,5.30
2018-05-10T07:09:54.782Z,5.90
2018-05-10T07:12:22.409Z,6.30
2018-05-10T07:14:50.288Z,6.07
2018-05-10T07:17:18.930Z,4.75
2018-05-10T07:19:46.689Z,4.75
2018-05-10T07:22:15.203Z,4.68
2018-05-10T07:24:42.964Z,4.35
2018-05-10T07:27:10.663Z,4.82
2018-05-10T07:29:38.432Z,6.17
2018-05-10T07:32:06.152Z,4.28
2018-05-10T07:34:33.904Z,4.82
2018-05-10T07:37:01.683Z,5.78
2018-05-10T07:39:29.370Z,4.53
2018-05-10T07:41:57.149Z,6.15
2018-05-10T07:44:24.900Z,7.15
2018-05-10T07:46:52.632Z,4.00
2018-05-10T07:49:20.318Z,6.70
2018-05-10T07:51:48.094Z,6.07
2018-05-10T07:54:15.781Z,6.87
2018-05-10T07:56:43.513Z,6.12
2018-05-10T07:59:11.217Z,7.50
2018-05-10T08:01:38.984Z,5.93
2018-05-10T08:04:07.452Z,7.18
2018-05-10T08:06:35.198Z,5.35
2018-05-10T08:09:02.984Z,6.37
2018-05-10T08:11:30.727Z,4.20
2018-05-10T08:13:58.427Z,5.70
2018-05-10T08:16:26.157Z,6.05
2018-05-10T08:18:53.868Z,7.85
2018-05-10T08:21:36.477Z,6.17
2018-05-10T08:24:04.178Z,5.40
2018-05-10T08:26:31.917Z,5.22
2018-05-10T08:28:59.695Z,6.50
2018-05-10T08:31:27.416Z,3.58
2018-05-10T08:33:55.973Z,6.45
2018-05-10T08:36:23.687Z,6.87
2018-05-10T08:38:51.445Z,8.20
2018-05-10T08:41:19.971Z,5.47
2018-05-10T08:43:47.753Z,5.45
2018-05-10T08:46:15.442Z,3.93
2018-05-10T08:48:43.225Z,3.22
2018-05-10T08:51:10.919Z,3.33
2018-05-10T08:53:38.668Z,2.87
2018-05-10T08:56:06.371Z,3.05
2018-05-10T08:58:34.254Z,3.40
2018-05-10T09:01:02.043Z,3.40
2018-05-10T09:03:30.509Z,4.23
2018-05-10T09:05:58.988Z,6.65
2018-05-10T09:08:26.804Z,3.95
2018-05-10T09:10:54.529Z,4.97
2018-05-10T09:13:23.064Z,4.60
2018-05-10T09:15:50.754Z,3.90
2018-05-10T09:18:18.560Z,5.00
2018-05-10T09:20:46.266Z,4.90
2018-05-10T09:23:14.013Z,5.65
2018-05-10T09:25:41.724Z,4.37
2018-05-10T09:28:10.207Z,2.40
2018-05-10T09:30:38.688Z,4.10
2018-05-10T09:33:07.176Z,4.25
2018-05-10T09:35:35.738Z,2.40
2018-05-10T09:38:03.537Z,2.60
2018-05-10T09:40:31.289Z,5.37
2018-05-10T09:42:59.932Z,7.97
2018-05-10T09:45:28.478Z,4.90
2018-05-10T09:47:56.260Z,2.42
2018-05-10T09:50:23.998Z,4.35
2018-05-10T09:52:51.685Z,4.03
2018-05-10T09:55:19.477Z,2.20
2018-05-10T09:57:47.174Z,4.07
2018-05-10T10:00:20.540Z,3.22
2018-05-10T10:02:48.246Z,4.87
2018-05-10T10:05:15.973Z,3.83
2018-05-10T10:07:43.674Z,3.28
2018-05-10T10:10:11.463Z,3.97
2018-05-10T10:12:39.218Z,4.25
2018-05-10T10:15:07.012Z,2.30
2018-05-10T10:17:34.755Z,3.80
2018-05-10T10:20:02.574Z,3.90
2018-05-10T10:22:31.038Z,4.15
2018-05-10T10:24:58.848Z,3.28
2018-05-10T10:27:26.880Z,4.12
2018-05-10T10:32:51.376Z,5.97
2018-05-10T10:35:19.911Z,6.57
2018-05-10T10:37:47.703Z,3.75
2018-05-10T10:40:15.500Z,5.25
2018-05-10T10:45:50.441Z,4.67
2018-05-10T10:48:18.975Z,6.20
2018-05-10T10:50:46.605Z,7.72
2018-05-10T10:53:15.058Z,7.07
2018-05-10T10:55:42.744Z,2.47
2018-05-10T10:58:10.515Z,5.55
2018-05-10T11:00:38.187Z,6.47
2018-05-10T11:03:06.045Z,6.28
2018-05-10T11:05:33.823Z,6.87
2018-05-10T11:08:01.703Z,5.68
2018-05-10T11:10:29.483Z,10.32
2018-05-10T11:12:57.350Z,5.78
2018-05-10T11:15:25.049Z,5.28
2018-05-10T11:17:52.833Z,5.40
2018-05-10T11:20:20.577Z,7.25
2018-05-10T11:22:48.356Z,7.07
2018-05-10T11:25:16.027Z,7.32
2018-05-10T11:27:43.805Z,10.50
2018-05-10T11:30:11.480Z,8.07
2018-05-10T11:32:39.177Z,11.45
2018-05-10T11:35:06.817Z,6.85
2018-05-10T11:37:34.607Z,7.60
2018-05-10T11:40:02.383Z,7.83
2018-05-10T11:42:30.081Z,11.00
2018-05-10T11:44:57.751Z,7.85
2018-05-10T11:47:25.525Z,9.98
2018-05-10T11:49:53.178Z,10.03
2018-05-10T11:52:20.976Z,5.93
2018-05-10T11:54:48.652Z,7.35
2018-05-10T11:57:16.351Z,8.23
2018-05-10T11:59:44.105Z,8.67
2018-05-10T12:02:11.737Z,5.70
2018-05-10T12:04:39.529Z,10.43
2018-05-10T12:07:07.237Z,9.07
2018-05-10T12:09:34.917Z,6.37
2018-05-10T12:12:02.756Z,13.32
2018-05-10T12:14:30.433Z,8.25
2018-05-10T12:16:58.125Z,9.73
2018-05-10T12:19:25.991Z,6.97
2018-05-10T12:21:53.682Z,8.18
2018-05-10T12:24:21.453Z,11.60
2018-05-10T12:26:49.089Z,7.12
2018-05-10T12:29:16.814Z,7.68
2018-05-10T12:31:44.658Z,10.40
2018-05-10T12:34:12.461Z,7.50
2018-05-10T12:36:40.101Z,8.63
2018-05-10T12:39:07.886Z,9.38
2018-05-10T12:41:35.681Z,9.88
2018-05-10T12:44:03.435Z,8.90
2018-05-10T12:46:31.314Z,6.60
2018-05-10T12:48:59.090Z,12.30
2018-05-10T12:51:26.867Z,9.20
2018-05-10T12:53:54.548Z,8.05
2018-05-10T12:56:22.425Z,7.62
2018-05-10T12:58:50.028Z,8.75
2018-05-10T13:01:17.870Z,11.53
2018-05-10T13:03:45.520Z,9.43
2018-05-10T13:06:13.248Z,6.43
2018-05-10T13:08:41.094Z,6.03
2018-05-10T13:11:08.793Z,9.50
2018-05-10T13:13:36.545Z,4.37
2018-05-10T13:16:04.249Z,6.45
2018-05-10T13:18:31.996Z,7.30
2018-05-10T13:20:59.879Z,8.32
2018-05-10T13:23:27.709Z,6.15
2018-05-10T13:25:56.171Z,6.22
2018-05-10T13:28:23.849Z,6.93
2018-05-10T13:30:51.597Z,6.78
2018-05-10T13:33:19.373Z,13.38
2018-05-10T13:35:47.152Z,7.47
2018-05-10T13:38:14.972Z,7.03
2018-05-10T13:40:42.620Z,11.07
2018-05-10T13:43:10.374Z,9.85
2018-05-10T13:45:38.083Z,7.00
2018-05-10T13:48:05.848Z,10.05
2018-05-10T13:50:33.602Z,7.25
2018-05-10T13:53:01.395Z,10.10
2018-05-10T13:55:29.871Z,8.05
2018-05-10T13:57:57.564Z,7.37
2018-05-10T14:00:25.321Z,8.63
2018-05-10T14:02:53.121Z,9.60
2018-05-10T14:05:20.792Z,7.68
2018-05-10T14:07:48.550Z,7.40
2018-05-10T14:10:16.325Z,8.90
2018-05-10T14:12:44.101Z,9.35
2018-05-10T14:15:11.803Z,9.23
2018-05-10T14:17:39.441Z,7.30
2018-05-10T14:20:07.121Z,7.68
2018-05-10T14:22:34.816Z,8.77
2018-05-10T14:25:03.392Z,11.35
2018-05-10T14:27:31.035Z,9.63
2018-05-10T14:29:59.583Z,9.05
2018-05-10T14:32:27.273Z,7.82
2018-05-10T14:34:54.950Z,7.60
2018-05-10T14:37:22.684Z,5.15
2018-05-10T14:39:50.388Z,4.18
2018-05-10T14:42:18.139Z,5.53
2018-05-10T14:44:45.942Z,5.12
2018-05-10T14:47:13.690Z,5.53
2018-05-10T14:49:41.462Z,5.33
2018-05-10T14:52:09.137Z,3.95
2018-05-10T14:54:36.837Z,8.13
2018-05-10T14:57:04.698Z,4.43
2018-05-10T14:59:32.567Z,4.50
2018-05-10T15:02:00.270Z,4.00
2018-05-10T15:04:28.120Z,4.57
2018-05-10T15:06:55.821Z,7.07
2018-05-10T15:09:23.571Z,3.67
2018-05-10T15:11:51.451Z,5.47
2018-05-10T15:14:19.147Z,6.07
2018-05-10T15:16:47.004Z,5.07
2018-05-10T15:19:14.697Z,8.07
2018-05-10T15:21:42.365Z,3.45
2018-05-10T15:24:10.045Z,2.75
2018-05-10T15:26:37.900Z,3.42
2018-05-10T15:29:05.597Z,2.42
2018-05-10T15:31:33.385Z,5.77
2018-05-10T15:34:01.127Z,3.83
2018-05-10T15:36:28.829Z,3.33
2018-05-10T15:38:56.497Z,3.92
2018-05-10T15:41:24.357Z,3.67
2018-05-10T15:43:52.027Z,4.30
2018-05-10T15:46:19.804Z,4.97
2018-05-10T15:48:47.581Z,2.20
2018-05-10T15:51:15.384Z,2.35
2018-05-10T15:53:43.152Z,3.40
2018-05-10T15:56:10.781Z,2.08
2018-05-10T15:58:38.583Z,4.70
2018-05-10T16:01:06.223Z,3.62
2018-05-10T16:03:33.953Z,5.15
2018-05-10T16:06:01.748Z,4.03
2018-05-10T16:08:29.591Z,3.63
2018-05-10T16:10:57.289Z,2.30
2018-05-10T16:13:25.039Z,3.03
2018-05-10T16:15:52.736Z,3.03
2018-05-10T16:18:20.591Z,2.30
2018-05-10T16:20:48.368Z,2.22
2018-05-10T16:23:16.144Z,3.77
2018-05-10T16:25:43.943Z,2.47
2018-05-10T16:28:11.721Z,2.87
2018-05-10T16:30:39.369Z,2.92
2018-05-10T16:33:07.068Z,3.37
2018-05-10T16:35:34.822Z,3.62
2018-05-10T16:38:02.596Z,4.07
2018-05-10T16:40:30.288Z,2.10
2018-05-10T16:42:58.046Z,4.00
2018-05-10T16:45:25.740Z,2.90
2018-05-10T16:47:53.503Z,4.75
2018-05-10T16:50:21.272Z,3.55
2018-05-10T16:52:48.968Z,2.28
2018-05-10T16:55:16.647Z,2.37
2018-05-10T16:57:44.399Z,3.20
2018-05-10T17:00:12.197Z,3.85
2018-05-10T17:02:39.950Z,2.78
2018-05-10T17:05:07.832Z,3.53
2018-05-10T17:07:35.504Z,3.20
2018-05-10T17:10:03.383Z,10.88
2018-05-10T17:12:31.085Z,10.60
2018-05-10T17:14:59.037Z,4.55
2018-05-10T17:17:26.680Z,3.28
2018-05-10T17:19:55.203Z,2.67
2018-05-10T17:22:22.904Z,3.60
2018-05-10T17:24:51.433Z,5.72
2018-05-10T17:27:19.971Z,2.83
2018-05-10T17:29:47.645Z,5.95
2018-05-10T17:32:15.546Z,2.30
2018-05-10T17:34:44.033Z,5.37
2018-05-10T17:37:11.889Z,3.30
2018-05-10T17:39:39.605Z,2.22
2018-05-10T17:42:07.442Z,2.28
2018-05-10T17:44:35.220Z,2.30
2018-05-10T17:47:03.097Z,2.50
2018-05-10T17:49:30.874Z,5.53
2018-05-10T17:51:58.650Z,3.53
2018-05-10T17:54:26.349Z,3.60
2018-05-10T17:56:54.121Z,4.00
2018-05-10T17:59:21.876Z,2.87
2018-05-10T18:01:49.541Z,1.93
2018-05-10T18:04:17.331Z,2.75
2018-05-10T18:06:45.106Z,2.40
2018-05-10T18:09:12.755Z,3.60
2018-05-10T18:11:40.473Z,3.03
2018-05-10T18:14:08.228Z,2.40
2018-05-10T18:16:36.005Z,3.05
2018-05-10T18:19:03.704Z,2.77
2018-05-10T18:21:31.455Z,2.42
2018-05-10T18:23:59.128Z,2.50
2018-05-10T18:26:26.905Z,3.03
2018-05-10T18:28:54.681Z,2.83
2018-05-10T18:31:22.377Z,3.50
2018-05-10T18:33:50.236Z,4.50
2018-05-10T18:36:17.938Z,4.75
2018-05-10T18:38:45.617Z,6.22
2018-05-10T18:41:13.276Z,5.18
2018-05-10T18:43:40.941Z,3.77
2018-05-10T18:46:08.704Z,4.35
2018-05-10T18:48:36.481Z,3.37
2018-05-10T18:51:04.257Z,4.35
2018-05-10T18:53:31.959Z,3.28
2018-05-10T18:55:59.715Z,4.45
2018-05-10T18:58:27.514Z,4.32
2018-05-10T19:00:55.267Z,3.62
2018-05-10T19:03:23.859Z,4.62
2018-05-10T19:05:51.635Z,4.35
2018-05-10T19:08:19.333Z,5.50
2018-05-10T19:10:46.980Z,4.67
2018-05-10T19:13:14.761Z,3.45
2018-05-10T19:15:42.431Z,4.55
2018-05-10T19:18:10.212Z,5.95
2018-05-10T19:20:37.984Z,4.18
2018-05-10T19:23:05.760Z,4.93
2018-05-10T19:25:33.457Z,5.28
2018-05-10T19:28:01.136Z,3.60
2018-05-10T19:30:28.848Z,3.45
2018-05-10T19:32:57.379Z,3.33
2018-05-10T19:35:25.046Z,3.30
2018-05-10T19:37:52.726Z,3.58
2018-05-10T19:40:20.427Z,3.67
2018-05-10T19:42:48.106Z,2.87
2018-05-10T19:45:15.947Z,3.60
2018-05-10T19:47:44.449Z,3.10
2018-05-10T19:50:12.220Z,3.25
2018-05-10T19:52:40.000Z,3.50
2018-05-10T19:55:08.521Z,3.50
2018-05-10T19:57:36.191Z,2.90
2018-05-10T20:00:04.659Z,3.65
2018-05-10T20:02:32.433Z,3.08
2018-05-10T20:05:00.211Z,3.15
2018-05-10T20:07:27.986Z,2.70
2018-05-10T20:09:55.864Z,3.35
2018-05-10T20:12:23.624Z,3.45
2018-05-10T20:14:53.900Z,3.60
2018-05-10T20:17:21.576Z,3.50
2018-05-10T20:19:49.325Z,4.10
2018-05-10T20:22:17.101Z,3.53
2018-05-10T20:24:45.083Z,3.77
2018-05-10T20:27:12.755Z,4.33
2018-05-10T20:29:40.452Z,3.60
2018-05-10T20:32:08.336Z,3.75
2018-05-10T20:34:36.088Z,3.97
2018-05-10T20:37:03.784Z,3.50
2018-05-10T20:39:31.537Z,4.37
2018-05-10T20:41:59.311Z,4.03
2018-05-10T20:44:27.088Z,4.55
2018-05-10T20:46:54.966Z,3.92
2018-05-10T20:49:22.746Z,4.15
2018-05-10T20:51:50.621Z,4.10
2018-05-10T20:54:18.398Z,3.70
2018-05-10T20:56:46.177Z,4.43
2018-05-10T20:59:14.062Z,4.60
2018-05-10T21:01:41.831Z,4.28
2018-05-10T21:04:09.657Z,4.15
2018-05-10T21:06:37.332Z,4.03
2018-05-10T21:09:05.744Z,4.10
2018-05-10T21:11:33.448Z,3.92
2018-05-10T21:14:01.269Z,4.68
2018-05-10T21:16:29.113Z,4.72
2018-05-10T21:18:57.595Z,4.32
2018-05-10T21:21:25.373Z,4.68
2018-05-10T21:23:53.181Z,4.45
2018-05-10T21:26:20.954Z,5.05
2018-05-10T21:28:48.805Z,4.40
2018-05-10T21:31:16.449Z,5.05
2018-05-10T21:33:44.263Z,5.20
2018-05-10T21:36:12.027Z,5.05
2018-05-10T21:38:39.726Z,5.43
2018-05-10T21:41:07.376Z,4.78
2018-05-10T21:43:35.074Z,5.25
2018-05-10T21:46:02.928Z,5.65
2018-05-10T21:48:30.629Z,4.57
2018-05-10T21:50:58.482Z,5.22
2018-05-10T21:53:26.291Z,5.55
2018-05-10T21:55:54.726Z,4.90
2018-05-10T21:58:22.527Z,5.12
2018-05-10T22:00:50.347Z,5.10
2018-05-10T22:03:18.182Z,5.35
2018-05-10T22:05:45.960Z,6.28
2018-05-10T22:08:13.736Z,4.75
2018-05-10T22:10:41.437Z,6.78
2018-05-10T22:13:09.297Z,4.82
2018-05-10T22:15:37.067Z,5.62
2018-05-10T22:18:04.864Z,5.35
2018-05-10T22:20:32.723Z,5.47
2018-05-10T22:23:00.421Z,5.90
2018-05-10T22:25:28.278Z,6.03
2018-05-10T22:27:56.523Z,5.62
2018-05-10T22:30:24.245Z,5.82
2018-05-10T22:32:51.937Z,5.30
2018-05-10T22:35:19.613Z,5.53
2018-05-10T22:37:47.292Z,5.55
2018-05-10T22:40:15.077Z,6.47
2018-05-10T22:42:42.709Z,5.95
2018-05-10T22:45:10.436Z,7.10
2018-05-10T22:47:38.189Z,6.50
2018-05-10T22:50:06.043Z,5.18
2018-05-10T22:52:33.680Z,6.15
2018-05-10T22:55:02.313Z,6.40
2018-05-10T22:57:30.091Z,6.43
2018-05-10T22:59:57.789Z,6.97
2018-05-10T23:02:25.475Z,7.18
2018-05-10T23:04:53.133Z,6.75
2018-05-10T23:07:20.909Z,5.67
2018-05-10T23:09:48.868Z,6.70
2018-05-10T23:12:16.750Z,6.10
2018-05-10T23:14:45.240Z,6.22
2018-05-10T23:17:13.014Z,5.83
2018-05-10T23:19:40.656Z,5.87
2018-05-10T23:22:09.182Z,6.82
2018-05-10T23:24:36.961Z,5.35
2018-05-10T23:27:04.838Z,7.05
2018-05-10T23:29:32.534Z,6.60
2018-05-10T23:32:00.287Z,6.68
2018-05-10T23:34:27.917Z,5.78
2018-05-10T23:36:56.454Z,6.90
2018-05-10T23:39:24.153Z,6.68
2018-05-10T23:41:51.904Z,6.75
2018-05-10T23:44:19.607Z,6.28
2018-05-10T23:46:47.390Z,6.72
2018-05-10T23:49:15.956Z,7.40
2018-05-10T23:51:43.625Z,6.80
2018-05-10T23:54:11.333Z,8.20
2018-05-10T23:56:39.033Z,6.97
2018-05-10T23:59:08.510Z,6.55
